createdAt,value
2018-08-16T00:00:51.634Z,94.65
2018-08-16T00:01:51.629Z,93.88
2018-08-16T00:02:51.624Z,94.79
2018-08-16T00:03:51.637Z,93.78
2018-08-16T00:04:51.608Z,94.29
2018-08-16T00:05:51.580Z,94.49
2018-08-16T00:06:51.577Z,94.29
2018-08-16T00:07:51.561Z,94.49
2018-08-16T00:08:51.589Z,94.70
2018-08-16T00:09:51.543Z,94.70
2018-08-16T00:10:51.540Z,94.79
2018-08-16T00:11:51.531Z,94.09
2018-08-16T00:12:51.504Z,94.39
2018-08-16T00:13:51.526Z,95.00
2018-08-16T00:14:51.535Z,95.00
2018-08-16T00:15:51.470Z,95.00
2018-08-16T00:16:51.466Z,95.00
2018-08-16T00:17:51.457Z,94.39
2018-08-16T00:18:51.482Z,93.83
2018-08-16T00:19:51.429Z,94.59
2018-08-16T00:20:51.434Z,94.64
2018-08-16T00:21:51.406Z,94.43
2018-08-16T00:22:51.401Z,95.25
2018-08-16T00:23:51.420Z,95.75
2018-08-16T00:24:51.379Z,96.06
2018-08-16T00:25:51.375Z,96.06
2018-08-16T00:26:51.353Z,95.75
2018-08-16T00:27:51.382Z,96.15
2018-08-16T00:28:51.352Z,95.71
2018-08-16T00:29:51.322Z,95.35
2018-08-16T00:30:51.331Z,95.45
2018-08-16T00:31:51.298Z,94.94
2018-08-16T00:32:51.284Z,96.06
2018-08-16T00:33:51.305Z,95.35
2018-08-16T00:34:51.274Z,95.75
2018-08-16T00:35:51.260Z,96.36
2018-08-16T00:36:51.255Z,96.56
2018-08-16T00:37:51.239Z,96.26
2018-08-16T00:38:51.247Z,96.26
2018-08-16T00:39:51.225Z,97.38
2018-08-16T00:40:51.217Z,96.91
2018-08-16T00:41:51.201Z,97.47
2018-08-16T00:42:51.177Z,97.22
2018-08-16T00:43:51.190Z,97.22
2018-08-16T00:44:51.172Z,97.07
2018-08-16T00:45:51.141Z,97.22
2018-08-16T00:46:51.143Z,96.91
2018-08-16T00:47:51.125Z,96.30
2018-08-16T00:48:51.145Z,96.61
2018-08-16T00:49:51.113Z,96.55
2018-08-16T00:50:51.092Z,96.91
2018-08-16T00:51:51.087Z,96.91
2018-08-16T00:52:51.077Z,96.81
2018-08-16T00:53:51.107Z,97.47
2018-08-16T00:54:51.057Z,97.42
2018-08-16T00:55:51.063Z,97.32
2018-08-16T00:56:51.023Z,97.83
2018-08-16T00:57:51.028Z,97.52
2018-08-16T00:58:51.051Z,97.56
2018-08-16T00:59:51.017Z,97.77
2018-08-16T01:00:51.030Z,97.83
2018-08-16T01:01:50.978Z,98.28
2018-08-16T01:02:50.971Z,97.83
2018-08-16T01:03:50.987Z,98.43
2018-08-16T01:04:50.936Z,98.74
2018-08-16T01:05:50.942Z,98.88
2018-08-16T01:06:50.914Z,97.77
2018-08-16T01:07:50.903Z,98.07
2018-08-16T01:08:50.923Z,97.92
2018-08-16T01:09:50.900Z,98.74
2018-08-16T01:10:50.890Z,99.24
2018-08-16T01:11:50.873Z,99.55
2018-08-16T01:12:50.863Z,99.95
2018-08-16T01:13:50.873Z,99.75
2018-08-16T01:14:50.832Z,99.14
2018-08-16T01:15:50.827Z,98.94
2018-08-16T01:16:50.814Z,98.74
2018-08-16T01:17:50.794Z,98.99
2018-08-16T01:18:50.824Z,98.59
2018-08-16T01:19:50.773Z,99.19
2018-08-16T01:20:50.763Z,98.79
2018-08-16T01:21:50.753Z,98.69
2018-08-16T01:22:50.744Z,98.39
2018-08-16T01:23:50.754Z,98.39
2018-08-16T01:24:50.726Z,97.67
2018-08-16T01:25:50.720Z,98.65
2018-08-16T01:26:50.710Z,98.69
2018-08-16T01:27:50.702Z,97.78
2018-08-16T01:28:50.712Z,97.78
2018-08-16T01:29:50.683Z,97.98
2018-08-16T01:30:50.653Z,98.59
2018-08-16T01:31:50.643Z,98.49
2018-08-16T01:32:50.634Z,97.67
2018-08-16T01:33:50.652Z,97.58
2018-08-16T01:34:50.626Z,98.59
2018-08-16T01:35:50.609Z,98.59
2018-08-16T01:36:50.611Z,98.39
2018-08-16T01:37:50.578Z,98.59
2018-08-16T01:38:50.590Z,98.65
2018-08-16T01:39:50.557Z,98.69
2018-08-16T01:40:50.550Z,98.65
2018-08-16T01:41:50.537Z,98.14
2018-08-16T01:42:50.538Z,97.88
2018-08-16T01:43:50.538Z,98.14
2018-08-16T01:44:50.518Z,98.03
2018-08-16T01:45:50.489Z,97.58
2018-08-16T01:46:50.479Z,97.83
2018-08-16T01:47:50.469Z,97.83
2018-08-16T01:48:50.508Z,98.34
2018-08-16T01:49:50.448Z,97.83
2018-08-16T01:50:50.436Z,97.73
2018-08-16T01:51:50.435Z,97.83
2018-08-16T01:52:50.420Z,98.14
2018-08-16T01:53:50.426Z,97.83
2018-08-16T01:54:50.393Z,97.47
2018-08-16T01:55:50.410Z,97.88
2018-08-16T01:56:50.372Z,97.43
2018-08-16T01:57:50.360Z,97.73
2018-08-16T01:58:50.378Z,98.03
2018-08-16T01:59:50.344Z,97.78
2018-08-16T02:00:50.327Z,97.73
2018-08-16T02:01:50.329Z,97.73
2018-08-16T02:02:50.306Z,97.53
2018-08-16T02:03:50.333Z,97.53
2018-08-16T02:04:50.285Z,97.73
2018-08-16T02:05:50.276Z,97.83
2018-08-16T02:06:50.263Z,97.43
2018-08-16T02:07:50.284Z,97.53
2018-08-16T02:08:50.269Z,98.14
2018-08-16T02:09:50.232Z,98.03
2018-08-16T02:10:50.218Z,97.53
2018-08-16T02:11:50.218Z,97.73
2018-08-16T02:12:50.198Z,97.67
2018-08-16T02:13:50.210Z,97.78
2018-08-16T02:14:50.211Z,97.78
2018-08-16T02:15:50.185Z,97.83
2018-08-16T02:16:50.156Z,98.18
2018-08-16T02:17:50.144Z,97.67
2018-08-16T02:18:50.160Z,97.58
2018-08-16T02:19:50.130Z,97.73
2018-08-16T02:20:50.112Z,97.88
2018-08-16T02:21:50.118Z,97.88
2018-08-16T02:22:50.103Z,97.88
2018-08-16T02:23:50.103Z,97.88
2018-08-16T02:24:50.071Z,97.67
2018-08-16T02:25:50.056Z,98.39
2018-08-16T02:26:50.045Z,97.98
2018-08-16T02:27:50.043Z,97.58
2018-08-16T02:28:50.071Z,97.67
2018-08-16T02:29:50.104Z,98.90
2018-08-16T02:30:50.012Z,98.39
2018-08-16T02:31:49.992Z,98.79
2018-08-16T02:32:49.984Z,98.49
2018-08-16T02:33:50.003Z,98.49
2018-08-16T02:34:49.962Z,98.69
2018-08-16T02:35:49.997Z,99.14
2018-08-16T02:36:50.008Z,98.33
2018-08-16T02:37:49.956Z,98.63
2018-08-16T02:38:49.939Z,98.74
2018-08-16T02:39:49.903Z,98.63
2018-08-16T02:40:49.909Z,98.63
2018-08-16T02:41:49.885Z,99.14
2018-08-16T02:42:49.898Z,98.54
2018-08-16T02:43:49.896Z,98.74
2018-08-16T02:44:49.850Z,97.97
2018-08-16T02:45:49.878Z,99.29
2018-08-16T02:46:49.828Z,98.88
2018-08-16T02:47:49.820Z,99.19
2018-08-16T02:48:49.875Z,99.29
2018-08-16T02:49:49.800Z,99.99
2018-08-16T02:50:49.818Z,99.99
2018-08-16T02:51:49.777Z,99.69
2018-08-16T02:52:49.773Z,99.99
2018-08-16T02:53:49.783Z,99.08
2018-08-16T02:54:49.802Z,98.88
2018-08-16T02:55:49.766Z,99.13
2018-08-16T02:56:49.742Z,98.99
2018-08-16T02:57:49.710Z,99.33
2018-08-16T02:58:49.742Z,99.19
2018-08-16T02:59:49.691Z,99.39
2018-08-16T03:00:49.683Z,98.88
2018-08-16T03:01:49.704Z,99.08
2018-08-16T03:02:49.666Z,98.79
2018-08-16T03:03:49.676Z,98.58
2018-08-16T03:04:49.697Z,98.68
2018-08-16T03:05:49.622Z,98.79
2018-08-16T03:06:49.610Z,97.97
2018-08-16T03:07:49.603Z,98.07
2018-08-16T03:08:49.618Z,98.68
2018-08-16T03:09:49.615Z,98.68
2018-08-16T03:10:49.572Z,98.73
2018-08-16T03:11:49.563Z,98.63
2018-08-16T03:12:49.546Z,98.93
2018-08-16T03:13:49.573Z,98.63
2018-08-16T03:14:49.526Z,98.99
2018-08-16T03:15:49.623Z,98.88
2018-08-16T03:16:49.502Z,98.93
2018-08-16T03:17:49.498Z,98.79
2018-08-16T03:18:49.503Z,99.29
2018-08-16T03:19:49.480Z,98.79
2018-08-16T03:20:49.488Z,99.29
2018-08-16T03:21:49.468Z,99.33
2018-08-16T03:22:49.437Z,99.99
2018-08-16T03:23:49.480Z,99.99
2018-08-16T03:24:49.415Z,99.99
2018-08-16T03:25:49.424Z,99.29
2018-08-16T03:26:49.396Z,99.24
2018-08-16T03:27:49.383Z,99.99
2018-08-16T03:28:49.423Z,99.99
2018-08-16T03:29:49.360Z,99.99
2018-08-16T03:30:49.395Z,99.85
2018-08-16T03:31:49.339Z,99.99
2018-08-16T03:32:49.328Z,99.99
2018-08-16T03:33:49.355Z,99.99
2018-08-16T03:34:49.306Z,99.13
2018-08-16T03:35:49.301Z,99.95
2018-08-16T03:36:49.324Z,99.74
2018-08-16T03:37:49.334Z,99.95
2018-08-16T03:38:49.284Z,99.85
2018-08-16T03:39:49.257Z,99.74
2018-08-16T03:40:49.257Z,99.99
2018-08-16T03:41:49.274Z,99.99
2018-08-16T03:42:49.256Z,99.95
2018-08-16T03:43:49.230Z,99.99
2018-08-16T03:44:49.213Z,99.95
2018-08-16T03:45:49.208Z,99.99
2018-08-16T03:46:49.202Z,99.99
2018-08-16T03:47:49.167Z,99.99
2018-08-16T03:48:49.176Z,99.99
2018-08-16T03:49:49.140Z,99.99
2018-08-16T03:50:49.217Z,99.99
2018-08-16T03:51:49.120Z,99.99
2018-08-16T03:52:49.114Z,99.99
2018-08-16T03:53:49.125Z,99.99
2018-08-16T03:54:49.102Z,99.99
2018-08-16T03:55:49.074Z,99.85
2018-08-16T03:56:49.081Z,99.99
2018-08-16T03:57:49.086Z,99.95
2018-08-16T03:58:49.066Z,99.95
2018-08-16T03:59:49.072Z,99.95
2018-08-16T04:00:49.023Z,99.99
2018-08-16T04:01:49.021Z,99.99
2018-08-16T04:02:48.999Z,99.99
2018-08-16T04:03:49.028Z,99.99
2018-08-16T04:04:49.066Z,99.99
2018-08-16T04:05:48.971Z,99.99
2018-08-16T04:06:48.960Z,99.99
2018-08-16T04:07:48.949Z,99.74
2018-08-16T04:08:48.975Z,99.99
2018-08-16T04:09:48.929Z,99.99
2018-08-16T04:10:48.956Z,99.99
2018-08-16T04:11:48.910Z,99.99
2018-08-16T04:12:48.899Z,99.99
2018-08-16T04:13:48.903Z,99.99
2018-08-16T04:14:48.869Z,99.99
2018-08-16T04:15:48.861Z,99.99
2018-08-16T04:16:48.920Z,99.99
2018-08-16T04:17:48.838Z,99.99
2018-08-16T04:18:48.854Z,99.99
2018-08-16T04:19:48.827Z,99.99
2018-08-16T04:20:48.810Z,99.99
2018-08-16T04:21:48.794Z,99.99
2018-08-16T04:22:48.816Z,99.99
2018-08-16T04:23:48.828Z,99.99
2018-08-16T04:24:48.762Z,99.99
2018-08-16T04:25:48.767Z,99.99
2018-08-16T04:26:48.759Z,99.99
2018-08-16T04:27:48.727Z,99.99
2018-08-16T04:28:48.755Z,99.99
2018-08-16T04:29:48.708Z,99.95
2018-08-16T04:30:48.734Z,99.99
2018-08-16T04:31:48.688Z,99.99
2018-08-16T04:32:48.674Z,99.99
2018-08-16T04:33:48.692Z,99.99
2018-08-16T04:34:48.658Z,99.99
2018-08-16T04:35:48.642Z,99.89
2018-08-16T04:36:48.688Z,99.99
2018-08-16T04:37:48.654Z,99.99
2018-08-16T04:38:48.637Z,99.99
2018-08-16T04:39:48.594Z,99.99
2018-08-16T04:40:48.591Z,99.99
2018-08-16T04:41:48.759Z,99.99
2018-08-16T04:42:48.567Z,99.99
2018-08-16T04:43:48.592Z,99.99
2018-08-16T04:44:48.578Z,99.99
2018-08-16T04:45:48.531Z,99.99
2018-08-16T04:46:48.522Z,99.99
2018-08-16T04:47:48.508Z,99.99
2018-08-16T04:48:48.523Z,99.99
2018-08-16T04:49:48.486Z,99.99
2018-08-16T04:50:48.476Z,99.99
2018-08-16T04:51:48.533Z,99.99
2018-08-16T04:52:48.457Z,99.99
2018-08-16T04:53:48.476Z,99.99
2018-08-16T04:54:48.435Z,99.99
2018-08-16T04:55:48.425Z,99.99
2018-08-16T04:56:48.425Z,99.99
2018-08-16T04:57:48.404Z,99.95
2018-08-16T04:58:48.482Z,99.99
2018-08-16T04:59:48.378Z,99.99
2018-08-16T05:00:48.370Z,99.99
2018-08-16T05:01:48.359Z,99.99
2018-08-16T05:02:48.351Z,99.99
2018-08-16T05:03:48.362Z,99.99
2018-08-16T05:04:48.361Z,99.99
2018-08-16T05:05:48.317Z,99.99
2018-08-16T05:06:48.311Z,99.95
2018-08-16T05:07:48.290Z,99.99
2018-08-16T05:08:48.279Z,99.74
2018-08-16T05:09:48.296Z,99.99
2018-08-16T05:10:48.261Z,99.99
2018-08-16T05:11:48.271Z,99.74
2018-08-16T05:12:48.242Z,99.85
2018-08-16T05:13:48.233Z,99.04
2018-08-16T05:14:48.243Z,99.99
2018-08-16T05:15:48.204Z,99.99
2018-08-16T05:16:48.198Z,99.99
2018-08-16T05:17:48.214Z,99.99
2018-08-16T05:18:48.173Z,99.99
2018-08-16T05:19:48.197Z,99.99
2018-08-16T05:20:48.155Z,99.99
2018-08-16T05:21:48.140Z,99.99
2018-08-16T05:22:48.169Z,99.99
2018-08-16T05:23:48.170Z,99.99
2018-08-16T05:24:48.106Z,99.99
2018-08-16T05:25:48.125Z,99.99
2018-08-16T05:26:48.099Z,99.99
2018-08-16T05:27:48.080Z,99.99
2018-08-16T05:28:48.065Z,99.99
2018-08-16T05:29:48.064Z,99.99
2018-08-16T05:30:48.098Z,99.85
2018-08-16T05:31:48.076Z,99.99
2018-08-16T05:32:48.020Z,99.10
2018-08-16T05:33:48.011Z,98.90
2018-08-16T05:34:48.000Z,98.90
2018-08-16T05:35:47.988Z,98.69
2018-08-16T05:36:48.028Z,98.59
2018-08-16T05:37:47.967Z,98.28
2018-08-16T05:38:47.955Z,98.90
2018-08-16T05:39:47.948Z,98.54
2018-08-16T05:40:47.965Z,98.54
2018-08-16T05:41:47.937Z,98.69
2018-08-16T05:42:47.931Z,97.83
2018-08-16T05:43:47.920Z,97.63
2018-08-16T05:44:47.890Z,97.83
2018-08-16T05:45:47.896Z,97.63
2018-08-16T05:46:47.909Z,97.79
2018-08-16T05:47:47.869Z,97.08
2018-08-16T05:48:47.845Z,96.57
2018-08-16T05:49:47.834Z,96.67
2018-08-16T05:50:47.854Z,96.22
2018-08-16T05:51:47.883Z,96.12
2018-08-16T05:52:47.803Z,95.92
2018-08-16T05:53:47.792Z,95.82
2018-08-16T05:54:47.779Z,95.51
2018-08-16T05:55:47.780Z,95.78
2018-08-16T05:56:47.782Z,94.96
2018-08-16T05:57:47.768Z,94.96
2018-08-16T05:58:47.744Z,95.07
2018-08-16T05:59:47.729Z,95.07
2018-08-16T06:00:47.743Z,93.95
2018-08-16T06:01:47.769Z,93.85
2018-08-16T06:02:47.729Z,93.95
2018-08-16T06:03:47.697Z,94.11
2018-08-16T06:04:47.676Z,93.91
2018-08-16T06:05:47.663Z,93.40
2018-08-16T06:06:47.648Z,93.30
2018-08-16T06:07:47.662Z,93.26
2018-08-16T06:08:47.627Z,92.65
2018-08-16T06:09:47.632Z,92.96
2018-08-16T06:10:47.610Z,92.45
2018-08-16T06:11:47.597Z,92.14
2018-08-16T06:12:47.618Z,92.30
2018-08-16T06:13:47.577Z,91.39
2018-08-16T06:14:47.565Z,90.85
2018-08-16T06:15:47.603Z,91.05
2018-08-16T06:16:47.547Z,90.24
2018-08-16T06:17:47.529Z,90.00
2018-08-16T06:18:47.544Z,89.15
2018-08-16T06:19:47.510Z,88.24
2018-08-16T06:20:47.499Z,87.90
2018-08-16T06:21:47.520Z,86.49
2018-08-16T06:22:47.560Z,86.89
2018-08-16T06:23:47.496Z,86.95
2018-08-16T06:24:47.456Z,86.65
2018-08-16T06:25:47.457Z,86.24
2018-08-16T06:26:47.443Z,86.35
2018-08-16T06:27:47.425Z,85.84
2018-08-16T06:28:47.496Z,85.44
2018-08-16T06:29:47.415Z,84.49
2018-08-16T06:30:47.397Z,84.55
2018-08-16T06:31:47.458Z,84.11
2018-08-16T06:32:47.368Z,82.36
2018-08-16T06:33:47.386Z,82.22
2018-08-16T06:34:47.365Z,80.51
2018-08-16T06:35:47.336Z,79.91
2018-08-16T06:36:47.325Z,80.07
2018-08-16T06:37:47.312Z,80.47
2018-08-16T06:38:47.762Z,80.68
2018-08-16T06:39:47.290Z,81.18
2018-08-16T06:40:47.313Z,81.07
2018-08-16T06:41:47.275Z,79.37
2018-08-16T06:42:47.261Z,80.61
2018-08-16T06:43:47.250Z,80.51
2018-08-16T06:44:47.265Z,81.72
2018-08-16T06:45:47.226Z,81.32
2018-08-16T06:46:47.256Z,81.21
2018-08-16T06:47:47.207Z,81.98
2018-08-16T06:48:47.196Z,80.77
2018-08-16T06:49:47.197Z,79.43
2018-08-16T06:50:47.203Z,80.24
2018-08-16T06:51:47.160Z,77.99
2018-08-16T06:52:47.239Z,76.61
2018-08-16T06:53:47.147Z,75.37
2018-08-16T06:54:47.128Z,75.63
2018-08-16T06:55:47.140Z,73.46
2018-08-16T06:56:47.104Z,71.83
2018-08-16T06:57:47.093Z,71.29
2018-08-16T06:58:47.130Z,69.86
2018-08-16T06:59:47.081Z,68.63
2018-08-16T07:00:47.149Z,68.59
2018-08-16T07:01:47.050Z,67.19
2018-08-16T07:02:47.042Z,67.03
2018-08-16T07:03:47.029Z,67.93
2018-08-16T07:04:47.053Z,67.49
2018-08-16T07:05:47.016Z,67.66
2018-08-16T07:06:47.084Z,67.26
2018-08-16T07:07:46.985Z,67.76
2018-08-16T07:08:46.974Z,68.26
2018-08-16T07:09:46.965Z,67.86
2018-08-16T07:10:46.955Z,66.27
2018-08-16T07:11:46.980Z,66.36
2018-08-16T07:12:46.943Z,65.87
2018-08-16T07:13:46.932Z,67.93
2018-08-16T07:14:46.917Z,66.93
2018-08-16T07:15:46.960Z,66.03
2018-08-16T07:16:46.886Z,65.44
2018-08-16T07:17:46.901Z,65.04
2018-08-16T07:18:46.921Z,65.14
2018-08-16T07:19:46.861Z,64.34
2018-08-16T07:20:46.850Z,66.33
2018-08-16T07:21:46.864Z,67.76
2018-08-16T07:22:46.856Z,68.13
2018-08-16T07:23:46.811Z,67.72
2018-08-16T07:24:46.901Z,66.73
2018-08-16T07:25:46.789Z,66.50
2018-08-16T07:26:46.779Z,65.70
2018-08-16T07:27:46.780Z,66.23
2018-08-16T07:28:46.785Z,68.82
2018-08-16T07:29:46.752Z,68.66
2018-08-16T07:30:46.736Z,67.72
2018-08-16T07:31:46.733Z,69.93
2018-08-16T07:32:46.718Z,71.06
2018-08-16T07:33:46.741Z,69.79
2018-08-16T07:34:46.713Z,71.46
2018-08-16T07:35:46.681Z,71.39
2018-08-16T07:36:46.670Z,71.59
2018-08-16T07:37:46.659Z,72.30
2018-08-16T07:38:46.682Z,72.80
2018-08-16T07:39:46.640Z,72.39
2018-08-16T07:40:46.627Z,72.30
2018-08-16T07:41:46.625Z,72.60
2018-08-16T07:42:46.623Z,72.19
2018-08-16T07:43:46.597Z,71.83
2018-08-16T07:44:46.640Z,71.80
2018-08-16T07:45:46.752Z,72.00
2018-08-16T07:46:46.564Z,71.59
2018-08-16T07:47:46.552Z,71.59
2018-08-16T07:48:46.561Z,71.59
2018-08-16T07:49:46.576Z,71.69
2018-08-16T07:50:46.520Z,71.69
2018-08-16T07:51:46.641Z,72.30
2018-08-16T07:52:46.499Z,72.53
2018-08-16T07:53:46.486Z,71.39
2018-08-16T07:54:46.494Z,71.89
2018-08-16T07:55:46.489Z,71.39
2018-08-16T07:56:46.457Z,72.09
2018-08-16T07:57:46.459Z,72.00
2018-08-16T07:58:46.435Z,71.30
2018-08-16T07:59:46.428Z,71.50
2018-08-16T08:00:46.457Z,71.30
2018-08-16T08:01:46.401Z,71.76
2018-08-16T08:02:46.393Z,70.76
2018-08-16T08:03:46.387Z,71.36
2018-08-16T08:04:46.369Z,71.26
2018-08-16T08:05:46.384Z,72.16
2018-08-16T08:06:46.346Z,72.56
2018-08-16T08:07:46.339Z,71.46
2018-08-16T08:08:46.452Z,71.36
2018-08-16T08:09:46.455Z,71.66
2018-08-16T08:10:46.327Z,71.26
2018-08-16T08:11:46.299Z,71.46
2018-08-16T08:12:46.280Z,71.46
2018-08-16T08:13:46.272Z,71.62
2018-08-16T08:14:46.269Z,71.73
2018-08-16T08:15:46.298Z,70.12
2018-08-16T08:16:46.240Z,70.23
2018-08-16T08:17:46.225Z,70.12
2018-08-16T08:18:46.220Z,71.33
2018-08-16T08:19:46.206Z,70.92
2018-08-16T08:20:46.192Z,71.73
2018-08-16T08:21:46.215Z,70.12
2018-08-16T08:22:46.177Z,70.69
2018-08-16T08:23:46.182Z,70.09
2018-08-16T08:24:46.157Z,71.09
2018-08-16T08:25:46.154Z,69.86
2018-08-16T08:26:46.227Z,71.56
2018-08-16T08:27:46.116Z,73.06
2018-08-16T08:28:46.193Z,70.96
2018-08-16T08:29:46.096Z,70.76
2018-08-16T08:30:46.083Z,69.36
2018-08-16T08:31:46.155Z,69.06
2018-08-16T08:32:46.112Z,69.36
2018-08-16T08:33:46.066Z,68.52
2018-08-16T08:34:46.043Z,67.93
2018-08-16T08:35:46.051Z,69.93
2018-08-16T08:36:46.053Z,67.63
2018-08-16T08:37:46.038Z,68.29
2018-08-16T08:38:46.009Z,69.79
2018-08-16T08:39:45.989Z,69.99
2018-08-16T08:40:45.996Z,68.99
2018-08-16T08:41:45.974Z,68.76
2018-08-16T08:42:45.997Z,68.46
2018-08-16T08:43:45.976Z,68.56
2018-08-16T08:44:45.944Z,67.16
2018-08-16T08:45:45.930Z,67.57
2018-08-16T08:46:45.949Z,66.83
2018-08-16T08:47:45.908Z,67.53
2018-08-16T08:48:45.939Z,67.83
2018-08-16T08:49:45.883Z,66.83
2018-08-16T08:50:45.876Z,67.30
2018-08-16T08:51:45.866Z,67.50
2018-08-16T08:52:45.870Z,66.00
2018-08-16T08:53:45.880Z,65.87
2018-08-16T08:54:45.835Z,66.40
2018-08-16T08:55:45.839Z,63.68
2018-08-16T08:56:45.809Z,64.28
2018-08-16T08:57:45.799Z,65.37
2018-08-16T08:58:45.807Z,66.27
2018-08-16T08:59:45.808Z,65.87
2018-08-16T09:00:45.766Z,64.07
2018-08-16T09:01:45.773Z,65.17
2018-08-16T09:02:45.751Z,65.67
2018-08-16T09:03:45.760Z,64.94
2018-08-16T09:04:45.724Z,63.85
2018-08-16T09:05:45.747Z,63.85
2018-08-16T09:06:45.735Z,64.12
2018-08-16T09:07:45.691Z,64.42
2018-08-16T09:08:45.678Z,64.12
2018-08-16T09:09:45.669Z,63.92
2018-08-16T09:10:45.751Z,63.49
2018-08-16T09:11:45.645Z,63.49
2018-08-16T09:12:45.636Z,63.29
2018-08-16T09:13:45.664Z,63.79
2018-08-16T09:14:45.616Z,63.79
2018-08-16T09:15:45.610Z,63.36
2018-08-16T09:16:45.626Z,62.16
2018-08-16T09:17:45.597Z,62.26
2018-08-16T09:18:45.585Z,63.95
2018-08-16T09:19:45.570Z,62.56
2018-08-16T09:20:45.560Z,62.66
2018-08-16T09:21:45.564Z,62.16
2018-08-16T09:22:45.533Z,62.23
2018-08-16T09:23:45.527Z,63.13
2018-08-16T09:24:45.508Z,61.01
2018-08-16T09:25:45.492Z,60.94
2018-08-16T09:26:45.505Z,61.41
2018-08-16T09:27:45.469Z,58.56
2018-08-16T09:28:45.489Z,60.05
2018-08-16T09:29:45.500Z,60.14
2018-08-16T09:30:45.437Z,60.42
2018-08-16T09:31:45.457Z,58.92
2018-08-16T09:32:45.423Z,59.42
2018-08-16T09:33:45.404Z,59.92
2018-08-16T09:34:45.394Z,60.22
2018-08-16T09:35:45.385Z,59.42
2018-08-16T09:36:45.402Z,61.08
2018-08-16T09:37:45.362Z,60.39
2018-08-16T09:38:45.352Z,60.19
2018-08-16T09:39:45.490Z,58.80
2018-08-16T09:40:45.340Z,59.32
2018-08-16T09:41:45.385Z,58.53
2018-08-16T09:42:45.314Z,59.72
2018-08-16T09:43:45.306Z,60.02
2018-08-16T09:44:45.301Z,59.62
2018-08-16T09:45:45.369Z,59.22
2018-08-16T09:46:45.276Z,60.61
2018-08-16T09:47:45.289Z,61.11
2018-08-16T09:48:45.248Z,59.72
2018-08-16T09:49:45.243Z,60.31
2018-08-16T09:50:45.228Z,60.22
2018-08-16T09:51:45.291Z,58.73
2018-08-16T09:52:45.258Z,60.52
2018-08-16T09:53:45.192Z,60.28
2018-08-16T09:54:45.183Z,59.49
2018-08-16T09:55:45.174Z,58.70
2018-08-16T09:56:45.159Z,59.47
2018-08-16T09:57:45.157Z,58.27
2018-08-16T09:58:45.164Z,58.37
2018-08-16T09:59:45.126Z,58.17
2018-08-16T10:00:45.134Z,58.57
2018-08-16T10:01:45.107Z,59.07
2018-08-16T10:02:45.189Z,58.37
2018-08-16T10:03:45.108Z,57.87
2018-08-16T10:04:45.076Z,57.87
2018-08-16T10:05:45.063Z,57.98
2018-08-16T10:06:45.080Z,58.77
2018-08-16T10:07:45.040Z,57.68
2018-08-16T10:08:45.069Z,59.47
2018-08-16T10:09:45.027Z,59.34
2018-08-16T10:10:45.010Z,60.16
2018-08-16T10:11:44.999Z,57.48
2018-08-16T10:12:44.988Z,57.38
2018-08-16T10:13:45.022Z,57.95
2018-08-16T10:14:44.967Z,57.18
2018-08-16T10:15:44.955Z,57.87
2018-08-16T10:16:44.943Z,58.34
2018-08-16T10:17:44.935Z,58.44
2018-08-16T10:18:44.947Z,57.65
2018-08-16T10:19:44.948Z,58.77
2018-08-16T10:20:44.953Z,59.14
2018-08-16T10:21:44.894Z,56.76
2018-08-16T10:22:44.881Z,57.92
2018-08-16T10:23:44.872Z,57.15
2018-08-16T10:24:44.910Z,58.42
2018-08-16T10:25:44.851Z,57.42
2018-08-16T10:26:44.838Z,56.43
2018-08-16T10:27:44.827Z,58.02
2018-08-16T10:28:44.832Z,56.95
2018-08-16T10:29:44.825Z,57.62
2018-08-16T10:30:44.826Z,57.53
2018-08-16T10:31:44.800Z,57.62
2018-08-16T10:32:44.773Z,57.72
2018-08-16T10:33:44.783Z,56.83
2018-08-16T10:34:44.767Z,55.44
2018-08-16T10:35:44.898Z,56.83
2018-08-16T10:36:44.730Z,57.32
2018-08-16T10:37:44.757Z,55.04
2018-08-16T10:38:44.812Z,56.93
2018-08-16T10:39:44.701Z,56.34
2018-08-16T10:40:44.728Z,57.00
2018-08-16T10:41:44.680Z,56.80
2018-08-16T10:42:44.678Z,54.72
2018-08-16T10:43:44.661Z,55.02
2018-08-16T10:44:44.649Z,55.81
2018-08-16T10:45:44.644Z,55.49
2018-08-16T10:46:44.657Z,55.91
2018-08-16T10:47:44.620Z,55.68
2018-08-16T10:48:44.605Z,56.18
2018-08-16T10:49:44.590Z,56.68
2018-08-16T10:50:44.588Z,55.39
2018-08-16T10:51:44.574Z,55.58
2018-08-16T10:52:44.590Z,54.79
2018-08-16T10:53:44.548Z,54.96
2018-08-16T10:54:44.537Z,54.10
2018-08-16T10:55:44.533Z,56.05
2018-08-16T10:56:44.520Z,54.86
2018-08-16T10:57:44.530Z,55.58
2018-08-16T10:58:44.508Z,53.88
2018-08-16T10:59:44.484Z,54.67
2018-08-16T11:00:44.481Z,54.57
2018-08-16T11:01:44.472Z,55.26
2018-08-16T11:02:44.494Z,54.77
2018-08-16T11:03:44.448Z,54.37
2018-08-16T11:04:44.444Z,52.66
2018-08-16T11:05:44.420Z,52.46
2018-08-16T11:06:44.428Z,52.26
2018-08-16T11:07:44.426Z,54.14
2018-08-16T11:08:44.388Z,52.66
2018-08-16T11:09:44.382Z,54.74
2018-08-16T11:10:44.378Z,52.07
2018-08-16T11:11:44.358Z,54.12
2018-08-16T11:12:44.408Z,51.75
2018-08-16T11:13:44.334Z,51.45
2018-08-16T11:14:44.327Z,51.32
2018-08-16T11:15:44.326Z,52.01
2018-08-16T11:16:44.339Z,49.44
2018-08-16T11:17:44.324Z,50.26
2018-08-16T11:18:44.317Z,51.23
2018-08-16T11:19:44.273Z,51.62
2018-08-16T11:20:44.263Z,51.82
2018-08-16T11:21:44.250Z,51.32
2018-08-16T11:22:44.242Z,53.89
2018-08-16T11:23:44.255Z,50.51
2018-08-16T11:24:44.216Z,52.39
2018-08-16T11:25:44.210Z,52.19
2018-08-16T11:26:44.208Z,49.79
2018-08-16T11:27:44.233Z,51.67
2018-08-16T11:28:44.183Z,50.24
2018-08-16T11:29:44.226Z,47.82
2018-08-16T11:30:44.187Z,48.05
2018-08-16T11:31:44.155Z,44.05
2018-08-16T11:32:44.165Z,43.47
2018-08-16T11:33:44.128Z,41.47
2018-08-16T11:34:44.114Z,41.23
2018-08-16T11:35:44.106Z,40.80
2018-08-16T11:36:44.110Z,38.81
2018-08-16T11:37:44.100Z,37.79
2018-08-16T11:38:44.097Z,35.14
2018-08-16T11:39:44.078Z,36.29
2018-08-16T11:40:44.170Z,35.30
2018-08-16T11:41:44.044Z,35.86
2018-08-16T11:42:44.044Z,34.08
2018-08-16T11:43:44.062Z,34.14
2018-08-16T11:44:44.025Z,33.44
2018-08-16T11:45:44.011Z,32.94
2018-08-16T11:46:44.087Z,32.75
2018-08-16T11:47:43.999Z,34.32
2018-08-16T11:48:43.979Z,33.33
2018-08-16T11:49:44.008Z,33.41
2018-08-16T11:50:43.968Z,33.53
2018-08-16T11:51:43.974Z,31.97
2018-08-16T11:52:43.947Z,33.34
2018-08-16T11:53:43.944Z,33.83
2018-08-16T11:54:43.959Z,34.52
2018-08-16T11:55:43.921Z,33.75
2018-08-16T11:56:43.967Z,34.25
2018-08-16T11:57:43.953Z,35.65
2018-08-16T11:58:44.867Z,36.14
2018-08-16T11:59:43.904Z,34.92
2018-08-16T12:00:43.942Z,33.53
2018-08-16T12:01:43.863Z,32.73
2018-08-16T12:02:43.852Z,32.05
2018-08-16T12:03:43.905Z,32.76
2018-08-16T12:04:43.831Z,33.75
2018-08-16T12:05:43.892Z,33.85
2018-08-16T12:06:43.811Z,32.78
2018-08-16T12:07:43.802Z,33.65
2018-08-16T12:08:43.820Z,34.12
2018-08-16T12:09:43.786Z,31.87
2018-08-16T12:10:43.803Z,32.57
2018-08-16T12:11:43.770Z,33.65
2018-08-16T12:12:43.758Z,33.98
2018-08-16T12:13:43.759Z,33.59
2018-08-16T12:14:43.848Z,32.86
2018-08-16T12:15:43.780Z,32.65
2018-08-16T12:16:43.734Z,32.05
2018-08-16T12:17:43.727Z,32.79
2018-08-16T12:18:43.708Z,31.62
2018-08-16T12:19:43.746Z,30.82
2018-08-16T12:20:43.690Z,31.68
2018-08-16T12:21:43.718Z,32.18
2018-08-16T12:22:43.683Z,31.89
2018-08-16T12:23:43.670Z,32.13
2018-08-16T12:24:43.665Z,31.66
2018-08-16T12:25:43.660Z,31.08
2018-08-16T12:26:43.708Z,31.57
2018-08-16T12:27:43.635Z,32.05
2018-08-16T12:28:43.624Z,33.78
2018-08-16T12:29:43.620Z,32.60
2018-08-16T12:30:43.604Z,30.48
2018-08-16T12:31:43.615Z,31.94
2018-08-16T12:32:43.619Z,31.07
2018-08-16T12:33:43.575Z,32.02
2018-08-16T12:34:43.605Z,31.32
2018-08-16T12:35:43.555Z,29.57
2018-08-16T12:36:43.552Z,29.74
2018-08-16T12:37:43.651Z,30.98
2018-08-16T12:38:43.528Z,30.75
2018-08-16T12:39:43.514Z,27.85
2018-08-16T12:40:43.539Z,27.72
2018-08-16T12:41:43.498Z,28.33
2018-08-16T12:42:43.540Z,30.69
2018-08-16T12:43:43.479Z,31.01
2018-08-16T12:44:43.468Z,29.34
2018-08-16T12:45:43.464Z,30.60
2018-08-16T12:46:43.454Z,29.44
2018-08-16T12:47:43.539Z,30.21
2018-08-16T12:48:43.466Z,31.50
2018-08-16T12:49:43.418Z,29.97
2018-08-16T12:50:43.636Z,30.45
2018-08-16T12:51:43.395Z,32.12
2018-08-16T12:52:43.392Z,31.66